Terminal Aerodrome Forecast
Issued by NWS

Home | Current Version | Previous Version | Text Only | Print | Product List | Glossary On
Versions: 1 2 3 4 5 6 7 8 9 10 11 12 13
000
FTUS41 KLWX 201700 RRA
TAFMTN
TAF
KMTN 201742Z 2018/2118 15010KT P6SM SCT040
     FM202300 14006KT P6SM SCT040
     FM210000 14005KT P6SM SCT250
     FM210500 00000KT P6SM BKN250
     FM210800 00000KT 3SM BR BKN250
     FM211400 VRB03KT P6SM SCT130=

USA.gov is the U.S. government's official web portal to all federal, state and local government web resources and services.